Valday, Russia
Current Conditions -  °F | °C
As of 6:00 PM on Thursday 23 Oct 2014 (Local Time) from ULLI Reporting Station
Broken Clouds Broken Clouds  
Wind Chill: 30°   Ceiling: 3400
Heat Index: 30°   Visibility: 6mi
Dew Point: 23°   Wind: 2mph
Humidity: 75%   Direction: 360°N
Pressure: 30.59"   Gusts: NA
Location:  57.97°N, 33.25°E
Report Text: ULLI 231500Z 36001MPS 9999 BKN034 BKN200 M01/M05 Q1036 88190050NOSIG
Loading
Personal Weather Stations






























Interactive Weather Map
Tropical Storm Tracking
New forecast layout! Learn more

10-Day Weather Forecast

Advertisements
Track Severe Weather on mobile